Time;durP1;ratioP1;P1;durP2;ratioP2;P2;SDS_P1;SDS_P2;PMS_P1;PMS_P2;Temp;Humidity;BMP_temperature;BMP_pressure;BME280_temperature;BME280_humidity;BME280_pressure;Samples;Min_cycle;Max_cycle;Signal;HPM_P1;HPM_P2
2021/03/31 00:00:28;;;;;;;17.80;10.63;;;;;;;3.93;94.26;95764.56;10482346;28;20029;-78
2021/03/31 00:05:29;;;;;;;17.80;10.25;;;;;;;3.92;93.35;95757.59;10481257;28;20048;-78
2021/03/31 00:10:34;;;;;;;19.20;10.43;;;;;;;3.98;94.20;95752.47;10482752;28;20864;-78
2021/03/31 00:15:35;;;;;;;27.73;10.52;;;;;;;4.03;92.88;95748.19;10489212;28;20035;-78
2021/03/31 00:20:37;;;;;;;15.73;10.23;;;;;;;4.14;93.30;95749.38;10494372;28;20372;-79
2021/03/31 00:25:39;;;;;;;19.52;10.05;;;;;;;4.08;92.82;95742.25;10496539;28;21162;-80
2021/03/31 00:30:40;;;;;;;13.57;9.07;;;;;;;4.02;92.21;95743.88;10495112;28;20028;-79
2021/03/31 00:35:41;;;;;;;19.73;9.82;;;;;;;3.98;92.08;95744.47;10493917;28;20384;-80
2021/03/31 00:40:44;;;;;;;21.08;9.65;;;;;;;3.96;93.35;95746.53;10493060;28;20024;-80
2021/03/31 00:45:46;;;;;;;14.80;9.45;;;;;;;3.89;94.49;95739.41;10496285;28;20033;-80
2021/03/31 00:50:49;;;;;;;13.95;8.88;;;;;;;3.68;93.77;95735.09;10495414;28;20032;-80
2021/03/31 00:55:50;;;;;;;18.75;10.45;;;;;;;3.60;97.86;95735.31;10494613;28;20032;-79
2021/03/31 01:00:51;;;;;;;22.83;10.88;;;;;;;3.45;97.61;95730.19;10495199;28;20024;-79
2021/03/31 01:05:51;;;;;;;22.00;11.00;;;;;;;3.32;99.32;95733.66;10494002;28;20044;-79
2021/03/31 01:10:55;;;;;;;24.13;11.63;;;;;;;3.23;99.12;95727.72;10497173;28;20070;-79
2021/03/31 01:16:06;;;;;;;20.75;12.20;;;;;;;3.24;100.00;95731.22;10497024;28;20036;-79
2021/03/31 01:21:41;;;;;;;23.27;13.40;;;;;;;3.30;100.00;95729.56;10496938;28;20028;-79
2021/03/31 01:27:04;;;;;;;20.60;12.20;;;;;;;3.22;100.00;95726.09;10495705;28;20039;-80
2021/03/31 01:32:32;;;;;;;22.42;13.35;;;;;;;3.21;100.00;95727.09;10492451;28;20108;-80
2021/03/31 01:37:39;;;;;;;20.83;10.68;;;;;;;3.39;95.75;95725.69;10490489;28;20074;-80
2021/03/31 01:42:52;;;;;;;24.75;11.57;;;;;;;3.44;100.00;95728.56;10490474;28;20074;-80
2021/03/31 01:47:54;;;;;;;21.08;11.90;;;;;;;3.50;99.47;95738.38;10489896;28;20025;-80
2021/03/31 01:52:55;;;;;;;16.70;9.27;;;;;;;3.59;92.92;95731.84;10450237;28;20029;-80
2021/03/31 01:57:56;;;;;;;14.93;9.07;;;;;;;3.64;91.43;95727.75;10453440;28;20780;-80
2021/03/31 02:02:58;;;;;;;17.25;8.30;;;;;;;3.39;90.92;95731.00;10450530;28;20282;-80
2021/03/31 02:07:59;;;;;;;12.00;9.00;;;;;;;3.27;92.27;95736.09;10447697;28;20052;-80
2021/03/31 02:13:00;;;;;;;16.30;9.30;;;;;;;3.21;94.70;95721.78;10451055;28;20025;-79
2021/03/31 02:18:06;;;;;;;14.10;9.45;;;;;;;3.10;95.41;95733.03;10447594;28;20025;-78
2021/03/31 02:23:07;;;;;;;18.83;9.25;;;;;;;3.02;96.21;95726.03;10447279;28;20057;-79
2021/03/31 02:28:08;;;;;;;19.02;9.10;;;;;;;3.06;94.92;95729.13;10449529;28;20029;-79
2021/03/31 02:33:11;;;;;;;20.17;9.15;;;;;;;3.02;95.38;95718.06;10451273;28;20407;-79
2021/03/31 02:38:15;;;;;;;17.95;11.30;;;;;;;3.01;95.15;95721.75;10449838;28;20055;-79
2021/03/31 02:43:17;;;;;;;18.88;9.85;;;;;;;3.11;94.06;95712.56;10449656;28;20029;-77
2021/03/31 02:48:20;;;;;;;17.50;9.25;;;;;;;3.20;95.27;95716.69;10450261;28;20063;-80
2021/03/31 02:53:21;;;;;;;17.42;9.05;;;;;;;3.26;95.76;95721.19;10484770;28;20036;-80
2021/03/31 02:58:23;;;;;;;20.73;11.15;;;;;;;3.25;97.81;95715.06;10484144;28;20032;-80
2021/03/31 03:03:23;;;;;;;13.98;9.20;;;;;;;3.23;99.28;95719.75;10482841;28;20028;-80
2021/03/31 03:08:25;;;;;;;21.70;11.77;;;;;;;3.19;100.00;95720.34;10484177;28;20542;-80
2021/03/31 03:13:27;;;;;;;18.67;10.93;;;;;;;3.10;100.00;95721.56;10485459;28;20028;-80
2021/03/31 03:18:27;;;;;;;16.58;10.30;;;;;;;2.98;100.00;95718.69;10483820;28;20028;-80
2021/03/31 03:23:30;;;;;;;17.52;12.57;;;;;;;2.73;100.00;95724.53;10484386;28;20025;-80
2021/03/31 03:28:32;;;;;;;26.27;13.07;;;;;;;2.67;100.00;95725.34;10484587;28;20841;-80
2021/03/31 03:33:32;;;;;;;18.60;12.32;;;;;;;2.45;100.00;95717.47;10484641;28;20024;-82
2021/03/31 03:38:34;;;;;;;47.80;13.48;;;;;;;2.44;100.00;95713.19;10486216;28;20024;-81
2021/03/31 03:43:38;;;;;;;29.52;14.55;;;;;;;2.48;100.00;95711.78;10486615;28;20029;-80
2021/03/31 03:48:39;;;;;;;27.27;12.85;;;;;;;2.64;100.00;95713.28;10481144;28;20028;-81
2021/03/31 03:53:41;;;;;;;25.65;13.02;;;;;;;2.59;100.00;95710.41;10482790;28;20039;-81
2021/03/31 03:58:41;;;;;;;18.83;11.82;;;;;;;2.68;100.00;95711.03;10468825;28;20016;-80
2021/03/31 04:03:42;;;;;;;23.47;13.40;;;;;;;2.61;100.00;95705.72;10465510;28;20514;-80
2021/03/31 04:08:43;;;;;;;27.60;13.60;;;;;;;2.59;100.00;95725.50;10463267;28;20128;-82
2021/03/31 04:13:43;;;;;;;28.50;14.10;;;;;;;2.68;100.00;95726.97;10467188;28;20028;-80
2021/03/31 04:18:45;;;;;;;30.13;13.73;;;;;;;2.74;100.00;95731.50;10465589;28;20025;-81
2021/03/31 04:23:45;;;;;;;32.58;15.43;;;;;;;2.74;100.00;95734.13;10467464;28;20638;-81
2021/03/31 04:28:46;;;;;;;31.65;16.52;;;;;;;2.67;100.00;95736.75;10464194;28;20020;-81
2021/03/31 04:33:47;;;;;;;32.58;16.33;;;;;;;2.72;100.00;95739.66;10458208;28;20739;-80
2021/03/31 04:38:49;;;;;;;37.05;15.93;;;;;;;2.65;100.00;95735.31;10468231;28;20028;-81
2021/03/31 04:43:49;;;;;;;23.73;12.88;;;;;;;2.62;100.00;95746.34;10481788;28;20048;-80
2021/03/31 04:48:50;;;;;;;31.40;13.70;;;;;;;2.83;100.00;95746.22;10479131;28;20036;-81
2021/03/31 04:53:50;;;;;;;20.00;12.60;;;;;;;2.97;100.00;95748.91;10479309;28;20020;-73
2021/03/31 04:58:51;;;;;;;26.10;14.85;;;;;;;2.93;100.00;95737.03;10478801;28;20160;-73
2021/03/31 05:03:51;;;;;;;37.80;15.57;;;;;;;3.12;100.00;95746.91;10460961;28;20032;-73
2021/03/31 05:08:51;;;;;;;26.20;14.20;;;;;;;3.57;100.00;95741.03;10445126;28;20307;-74
2021/03/31 05:13:52;;;;;;;22.23;12.77;;;;;;;4.12;100.00;95730.16;10457829;28;20032;-74
2021/03/31 05:18:52;;;;;;;23.27;13.48;;;;;;;4.24;99.70;95728.50;10486759;28;20494;-74
2021/03/31 05:23:52;;;;;;;42.13;16.50;;;;;;;4.48;100.00;95744.81;10485748;28;20029;-74
2021/03/31 05:28:53;;;;;;;32.80;18.00;;;;;;;4.51;100.00;95744.38;10485912;28;20294;-73
2021/03/31 05:33:53;;;;;;;41.60;19.73;;;;;;;4.96;100.00;95740.94;10485885;28;20275;-74
2021/03/31 05:38:53;;;;;;;48.70;20.47;;;;;;;5.43;98.20;95743.31;10485545;28;20078;-74
2021/03/31 05:43:55;;;;;;;44.27;19.23;;;;;;;5.90;93.34;95741.13;10486913;28;20044;-72
2021/03/31 05:48:57;;;;;;;48.45;24.23;;;;;;;6.28;90.55;95737.50;10485833;28;20024;-72
2021/03/31 05:53:57;;;;;;;67.00;25.10;;;;;;;7.10;84.74;95732.84;10483438;28;20060;-73
2021/03/31 05:59:02;;;;;;;63.93;22.27;;;;;;;7.66;77.69;95733.47;10485584;28;20935;-73
2021/03/31 06:04:03;;;;;;;50.63;21.75;;;;;;;7.81;72.16;95743.75;10483912;28;20072;-73
2021/03/31 06:09:08;;;;;;;38.03;19.40;;;;;;;7.58;72.16;95740.00;10459617;28;20053;-73
2021/03/31 06:14:08;;;;;;;35.33;18.17;;;;;;;8.59;64.73;95739.13;10441692;28;20028;-73
2021/03/31 06:19:17;;;;;;;40.00;15.10;;;;;;;9.04;63.52;95740.28;10443385;28;20475;-73
2021/03/31 06:24:21;;;;;;;;;;;;;;;8.42;62.75;95746.22;10449532;28;20283;-73
2021/03/31 06:29:22;;;;;;;31.17;12.18;;;;;;;7.72;65.42;95737.09;10484592;28;19919;-73
2021/03/31 06:34:27;;;;;;;21.00;11.73;;;;;;;7.97;69.22;95740.41;10483248;28;20299;-73
2021/03/31 06:39:35;;;;;;;22.23;13.02;;;;;;;7.98;65.53;95736.69;10482344;28;20285;-73
2021/03/31 06:45:25;;;;;;;21.67;11.60;;;;;;;8.87;63.79;95729.50;10487969;28;20396;-73
2021/03/31 06:50:03;;;;;;;23.65;11.57;;;;;;;9.53;61.65;95726.44;10472015;28;20112;-73
2021/03/31 06:55:04;;;;;;;31.75;12.13;;;;;;;9.99;58.87;95719.16;10481879;28;20518;-73
2021/03/31 07:00:10;;;;;;;37.75;14.05;;;;;;;9.77;61.81;95728.97;10483024;28;20021;-73
2021/03/31 07:05:11;;;;;;;37.42;15.13;;;;;;;9.68;63.95;95724.00;10483337;28;20049;-73
2021/03/31 07:10:14;;;;;;;24.23;15.00;;;;;;;9.48;62.94;95723.69;10482671;28;20036;-73
2021/03/31 07:15:17;;;;;;;30.10;14.63;;;;;;;10.02;62.64;95723.19;10483030;28;20085;-74
2021/03/31 07:20:17;;;;;;;28.85;13.57;;;;;;;10.97;54.21;95717.00;10481761;28;20024;-74
2021/03/31 07:25:18;;;;;;;29.23;13.73;;;;;;;11.32;51.19;95724.66;10481195;28;20086;-73
2021/03/31 07:30:22;;;;;;;22.45;14.27;;;;;;;11.05;51.12;95721.94;10483092;28;20021;-73
2021/03/31 07:35:25;;;;;;;23.25;13.40;;;;;;;12.17;51.52;95717.88;10473746;28;20032;-74
2021/03/31 07:40:29;;;;;;;23.08;12.32;;;;;;;14.99;43.46;95700.53;10441614;28;20570;-74
2021/03/31 07:45:45;;;;;;;17.90;10.30;;;;;;;15.87;38.20;95698.94;10441451;28;20705;-74
2021/03/31 07:50:45;;;;;;;13.82;9.75;;;;;;;16.25;36.58;95692.94;10440777;28;20117;-75
2021/03/31 07:55:48;;;;;;;15.40;10.07;;;;;;;15.62;37.52;95696.41;10478763;28;20467;-74
2021/03/31 08:00:54;;;;;;;18.25;10.63;;;;;;;15.81;36.79;95701.97;10481915;28;20028;-74
2021/03/31 08:06:12;;;;;;;18.85;10.15;;;;;;;15.94;37.87;95695.91;10484015;28;20048;-73
2021/03/31 08:11:33;;;;;;;18.35;12.05;;;;;;;16.83;36.02;95694.78;10480435;28;20123;-73
2021/03/31 08:16:41;;;;;;;18.92;11.70;;;;;;;17.21;35.87;95694.09;10481603;28;20028;-73
2021/03/31 08:21:44;;;;;;;17.63;10.03;;;;;;;16.75;34.15;95698.94;10481345;28;20025;-72
2021/03/31 08:26:48;;;;;;;21.52;11.60;;;;;;;16.96;35.99;95689.78;10480055;28;20040;-73
2021/03/31 08:32:03;;;;;;;23.52;14.15;;;;;;;17.58;33.23;95687.06;10480078;28;20035;-72
2021/03/31 08:37:06;;;;;;;17.55;10.38;;;;;;;17.46;33.26;95678.56;10487311;28;20119;-74
2021/03/31 08:42:06;;;;;;;15.45;10.95;;;;;;;18.13;32.91;95677.56;10489724;28;20044;-72
2021/03/31 08:47:17;;;;;;;20.67;10.17;;;;;;;18.77;31.91;95661.41;10489301;28;20029;-72
2021/03/31 08:52:22;;;;;;;17.35;9.45;;;;;;;18.65;31.48;95670.06;10463732;28;20025;-72
2021/03/31 08:57:27;;;;;;;15.90;9.45;;;;;;;18.81;31.57;95664.31;10447512;28;20056;-72
2021/03/31 09:02:32;;;;;;;19.48;9.95;;;;;;;19.47;30.77;95648.50;10447701;28;20087;-72
2021/03/31 09:07:32;;;;;;;20.85;9.98;;;;;;;17.80;32.64;95661.97;10447154;28;20490;-72
2021/03/31 09:12:33;;;;;;;18.13;11.20;;;;;;;17.10;33.83;95652.66;10447269;28;20035;-73
2021/03/31 09:17:34;;;;;;;13.73;10.10;;;;;;;19.06;31.41;95641.22;10445640;28;20086;-73
2021/03/31 09:22:36;;;;;;;15.90;11.48;;;;;;;19.42;30.11;95626.81;10445625;28;20029;-72
2021/03/31 09:27:37;;;;;;;19.90;10.68;;;;;;;19.33;32.44;95621.28;10445833;28;20033;-72
2021/03/31 09:32:42;;;;;;;17.90;10.57;;;;;;;18.60;32.15;95616.53;10444459;28;20033;-73
2021/03/31 09:37:46;;;;;;;18.25;10.38;;;;;;;18.30;32.33;95626.06;10451076;28;20048;-73
2021/03/31 09:42:47;;;;;;;19.33;10.95;;;;;;;18.31;32.84;95626.88;10444476;28;20037;-73
2021/03/31 09:47:48;;;;;;;16.33;11.02;;;;;;;18.72;32.75;95604.31;10444556;28;20071;-73
2021/03/31 09:52:54;;;;;;;16.47;11.70;;;;;;;20.28;30.22;95598.53;10445039;28;20116;-74
2021/03/31 09:57:55;;;;;;;17.77;10.73;;;;;;;22.70;27.67;95598.44;10445291;28;20491;-74
2021/03/31 10:02:56;;;;;;;16.02;10.15;;;;;;;21.49;28.63;95584.69;10443864;28;20152;-74
2021/03/31 10:08:02;;;;;;;21.13;9.70;;;;;;;24.01;25.90;95578.31;10444118;28;20085;-74
2021/03/31 10:13:03;;;;;;;16.33;9.40;;;;;;;25.85;23.83;95564.81;10444107;28;20031;-75
2021/03/31 10:18:04;;;;;;;12.75;8.43;;;;;;;26.71;23.06;95557.19;10458114;28;20593;-75
2021/03/31 10:23:04;;;;;;;15.07;8.82;;;;;;;27.61;23.43;95539.88;10453435;28;20047;-74
2021/03/31 10:28:04;;;;;;;12.00;8.50;;;;;;;26.48;22.73;95534.97;10443948;28;20045;-75
2021/03/31 10:33:05;;;;;;;12.37;8.97;;;;;;;24.26;24.39;95539.91;10444120;28;20102;-75
2021/03/31 10:38:09;;;;;;;17.48;9.27;;;;;;;25.16;23.63;95530.94;10473841;28;20079;-75
2021/03/31 10:58:51;;;;;;;14.02;7.78;;;;;;;25.73;22.89;95502.34;10484015;28;20017;-76
2021/03/31 11:03:52;;;;;;;12.77;7.72;;;;;;;26.24;22.22;95498.16;10484574;28;20834;-75
2021/03/31 11:08:52;;;;;;;21.43;8.00;;;;;;;26.04;21.98;95492.56;10482921;28;20041;-77
2021/03/31 11:13:53;;;;;;;10.13;7.23;;;;;;;25.84;21.97;95477.81;10483531;28;20039;-76
2021/03/31 11:19:32;;;;;;;11.30;6.60;;;;;;;27.85;21.14;95468.91;10483298;28;20043;-75
2021/03/31 11:29:33;;;;;;;10.48;7.53;;;;;;;23.26;25.12;95469.44;10482479;28;20024;-76
2021/03/31 11:34:33;;;;;;;14.50;9.48;;;;;;;19.66;27.88;95465.66;10482166;28;20040;-76
2021/03/31 11:39:34;;;;;;;17.30;9.27;;;;;;;18.48;30.43;95463.00;10482907;28;20027;-76
2021/03/31 11:44:34;;;;;;;13.87;8.63;;;;;;;17.18;31.39;95461.06;10482450;28;20523;-77
2021/03/31 11:49:34;;;;;;;15.43;8.37;;;;;;;16.59;32.29;95450.56;10480629;28;20411;-77
2021/03/31 11:54:35;;;;;;;21.67;9.85;;;;;;;15.38;32.80;95454.13;10480192;28;20028;-77
2021/03/31 11:59:35;;;;;;;12.87;9.17;;;;;;;15.41;33.35;95444.63;10481445;28;20023;-77
2021/03/31 12:04:35;;;;;;;13.40;8.90;;;;;;;15.20;35.15;95433.97;10480765;28;20020;-76
2021/03/31 12:09:40;;;;;;;14.87;8.63;;;;;;;14.90;35.85;95432.34;10481299;28;20024;-76
2021/03/31 12:14:41;;;;;;;16.23;8.57;;;;;;;14.68;34.46;95436.31;10480184;28;20351;-76
2021/03/31 12:19:41;;;;;;;14.10;8.30;;;;;;;14.66;33.78;95432.25;10480553;28;20031;-76
2021/03/31 12:24:42;;;;;;;14.97;9.40;;;;;;;14.26;35.09;95418.72;10481186;28;20025;-76
2021/03/31 12:29:43;;;;;;;19.23;8.90;;;;;;;14.21;37.47;95416.03;10457909;28;20090;-76
2021/03/31 12:34:45;;;;;;;13.63;8.10;;;;;;;14.25;34.95;95414.38;10440238;28;20028;-76
2021/03/31 12:39:45;;;;;;;15.40;8.88;;;;;;;14.05;34.83;95409.91;10440227;28;20025;-76
2021/03/31 12:44:45;;;;;;;14.48;8.48;;;;;;;14.04;34.47;95393.94;10439894;28;20021;-76
2021/03/31 12:49:50;;;;;;;11.70;8.10;;;;;;;13.83;35.63;95386.75;10439549;28;20029;-76
2021/03/31 12:55:00;;;;;;;16.63;8.63;;;;;;;13.96;35.68;95387.25;10439547;28;20742;-76
2021/03/31 13:00:02;;;;;;;14.40;8.38;;;;;;;13.84;37.03;95376.75;10439460;28;20020;-75
2021/03/31 13:05:03;;;;;;;23.60;8.88;;;;;;;13.95;35.88;95372.94;10437662;28;20053;-77
2021/03/31 13:10:07;;;;;;;14.95;8.50;;;;;;;13.66;36.65;95361.97;10439020;28;20484;-77
2021/03/31 13:25:55;;;;;;;13.48;8.32;;;;;;;13.26;38.17;95342.94;10445750;28;20032;-76
2021/03/31 13:31:02;;;;;;;11.93;8.55;;;;;;;13.09;36.19;95331.63;10444951;28;20094;-76
2021/03/31 13:41:06;;;;;;;11.35;6.97;;;;;;;13.10;37.47;95322.47;10444846;28;20029;-76
2021/03/31 13:46:07;;;;;;;15.38;8.10;;;;;;;13.18;37.09;95319.19;10444914;28;20029;-76
2021/03/31 13:51:11;;;;;;;17.90;7.27;;;;;;;13.22;35.81;95322.97;10444681;28;20032;-76
2021/03/31 13:56:21;;;;;;;13.63;7.40;;;;;;;13.12;35.87;95309.53;10444477;28;20032;-76
2021/03/31 14:01:21;;;;;;;10.70;7.18;;;;;;;13.20;35.43;95303.56;10445210;28;20045;-77
2021/03/31 14:06:22;;;;;;;14.77;8.30;;;;;;;13.20;35.61;95297.34;10442313;28;20532;-76
2021/03/31 14:11:22;;;;;;;16.50;7.80;;;;;;;13.15;35.92;95290.06;10443520;28;20032;-76
2021/03/31 14:16:23;;;;;;;12.68;8.38;;;;;;;13.19;35.78;95291.13;10444002;28;20743;-77
2021/03/31 14:21:26;;;;;;;18.90;8.15;;;;;;;12.76;36.47;95294.22;10442647;28;20086;-76
2021/03/31 14:26:26;;;;;;;18.40;8.40;;;;;;;12.92;38.45;95294.19;10443882;28;20025;-76
2021/03/31 14:31:27;;;;;;;10.30;7.33;;;;;;;13.00;36.50;95290.91;10445126;28;20036;-76
2021/03/31 14:36:28;;;;;;;14.47;7.77;;;;;;;12.91;35.49;95284.50;10482765;28;20028;-76
2021/03/31 14:41:29;;;;;;;10.05;6.32;;;;;;;13.01;34.88;95279.06;10483996;28;20021;-77
2021/03/31 14:46:30;;;;;;;12.65;6.53;;;;;;;12.91;34.42;95282.59;10484883;28;20031;-77
2021/03/31 15:01:55;;;;;;;14.05;6.43;;;;;;;12.64;35.06;95266.72;10478909;28;20495;-76
2021/03/31 15:06:55;;;;;;;13.63;8.03;;;;;;;12.75;35.68;95260.22;10441324;28;20104;-76
2021/03/31 15:11:59;;;;;;;16.63;7.40;;;;;;;12.57;35.78;95269.72;10441802;28;20037;-77
2021/03/31 15:17:01;;;;;;;9.48;6.65;;;;;;;12.45;36.10;95263.81;10442356;28;20044;-77
2021/03/31 15:27:11;;;;;;;16.80;6.97;;;;;;;12.37;36.43;95256.28;10440698;28;20025;-77
2021/03/31 15:32:12;;;;;;;15.63;7.63;;;;;;;12.30;36.61;95267.31;10441284;28;20037;-77
2021/03/31 15:37:12;;;;;;;10.57;6.53;;;;;;;12.24;36.58;95258.44;10441971;28;20033;-77
2021/03/31 15:42:13;;;;;;;10.80;6.27;;;;;;;11.98;36.72;95254.13;10481803;28;20443;-77
2021/03/31 15:52:14;;;;;;;14.57;8.18;;;;;;;11.79;38.06;95255.44;10479249;28;20028;-76
2021/03/31 15:57:14;;;;;;;19.40;8.53;;;;;;;11.81;38.27;95252.47;10480962;28;20774;-76
2021/03/31 16:02:17;;;;;;;21.92;7.43;;;;;;;11.65;38.35;95254.31;10462205;28;20572;-72
2021/03/31 16:07:33;;;;;;;11.70;7.30;;;;;;;11.62;38.33;95246.78;10481716;28;20601;-72
2021/03/31 16:12:34;;;;;;;14.93;8.65;;;;;;;11.73;39.87;95253.00;10482362;28;20039;-73
2021/03/31 16:17:35;;;;;;;12.07;8.00;;;;;;;11.69;39.89;95246.53;10480667;28;20017;-72
2021/03/31 16:22:35;;;;;;;19.15;8.45;;;;;;;11.62;40.55;95242.22;10481250;28;20099;-73
2021/03/31 16:32:54;;;;;;;15.02;8.07;;;;;;;11.36;41.65;95246.75;10480908;28;20024;-73
2021/03/31 16:37:55;;;;;;;14.70;7.63;;;;;;;11.28;41.78;95247.25;10481745;28;20024;-72
2021/03/31 16:42:55;;;;;;;15.27;8.70;;;;;;;11.16;42.08;95246.66;10479587;28;20024;-73
2021/03/31 16:47:56;;;;;;;19.48;9.55;;;;;;;11.00;42.61;95249.31;10479702;28;20048;-76
2021/03/31 16:52:56;;;;;;;16.55;8.57;;;;;;;10.94;42.66;95245.00;10478697;28;20495;-76
2021/03/31 16:57:56;;;;;;;14.33;8.77;;;;;;;10.75;42.83;95248.09;10484984;28;20037;-76
2021/03/31 17:02:57;;;;;;;22.13;9.33;;;;;;;10.59;42.92;95241.84;10488840;28;20064;-75
2021/03/31 17:07:57;;;;;;;20.77;8.83;;;;;;;10.58;42.87;95242.91;10475542;28;20084;-76
2021/03/31 17:12:57;;;;;;;17.30;10.00;;;;;;;10.53;43.66;95245.56;10488116;28;20094;-75
2021/03/31 17:17:59;;;;;;;17.37;9.23;;;;;;;10.30;43.95;95246.75;10489141;28;20077;-76
2021/03/31 17:22:59;;;;;;;16.85;10.00;;;;;;;10.26;44.90;95242.97;10487053;28;20956;-75
2021/03/31 17:28:02;;;;;;;20.23;11.15;;;;;;;10.23;45.26;95246.16;10488546;28;20118;-75
2021/03/31 17:33:04;;;;;;;16.67;10.00;;;;;;;10.18;45.57;95248.81;10487328;28;20052;-75
2021/03/31 17:38:07;;;;;;;21.40;12.13;;;;;;;10.06;45.95;95257.03;10472431;28;20135;-74
2021/03/31 17:43:07;;;;;;;16.15;10.15;;;;;;;9.94;47.40;95251.84;10466883;28;20035;-75
2021/03/31 17:48:08;;;;;;;25.17;11.23;;;;;;;9.80;47.06;95256.84;10478923;28;20056;-75
2021/03/31 17:53:16;;;;;;;16.83;10.27;;;;;;;9.74;46.52;95258.66;10487012;28;20133;-75
2021/03/31 17:58:17;;;;;;;19.38;10.57;;;;;;;9.74;46.91;95260.56;10478515;28;20078;-76
2021/03/31 18:03:17;;;;;;;33.60;17.75;;;;;;;9.31;50.30;95263.06;10483434;28;20126;-75
2021/03/31 18:08:17;;;;;;;30.38;17.20;;;;;;;8.96;52.69;95263.47;10484108;28;20118;-75
2021/03/31 18:13:18;;;;;;;31.60;16.27;;;;;;;8.88;52.99;95268.19;10487618;28;20067;-76
2021/03/31 18:18:19;;;;;;;29.83;16.27;;;;;;;8.84;53.73;95264.38;10484605;28;20050;-76
2021/03/31 18:23:19;;;;;;;30.90;17.38;;;;;;;8.88;53.97;95270.88;10483763;28;20722;-77
2021/03/31 18:28:20;;;;;;;28.08;16.85;;;;;;;8.98;55.26;95280.91;10486961;28;20029;-77
2021/03/31 18:33:20;;;;;;;27.90;17.17;;;;;;;9.00;54.56;95270.78;10485792;28;20826;-76
2021/03/31 18:38:21;;;;;;;28.52;14.90;;;;;;;9.08;57.07;95269.50;10481289;28;20020;-75
2021/03/31 18:43:34;;;;;;;27.73;15.57;;;;;;;9.10;58.52;95272.75;10486156;28;20052;-76
2021/03/31 18:48:35;;;;;;;34.45;16.33;;;;;;;8.99;59.16;95266.47;10485852;28;20366;-76
2021/03/31 18:53:35;;;;;;;41.65;15.57;;;;;;;9.13;58.80;95271.47;10485516;28;20025;-76
2021/03/31 18:58:36;;;;;;;23.45;11.50;;;;;;;9.31;53.61;95268.44;10485418;28;20368;-76
2021/03/31 19:03:37;;;;;;;23.60;14.15;;;;;;;9.38;52.62;95255.63;10481354;28;20031;-76
2021/03/31 19:13:48;;;;;;;21.17;12.82;;;;;;;9.40;54.04;95263.44;10483675;28;20016;-75
2021/03/31 19:18:48;;;;;;;27.48;12.75;;;;;;;9.11;55.90;95252.13;10484071;28;20020;-75
2021/03/31 19:23:48;;;;;;;19.30;12.23;;;;;;;8.80;55.07;95241.03;10462809;28;20032;-76
2021/03/31 19:28:49;;;;;;;21.92;12.20;;;;;;;8.74;56.86;95240.16;10483992;28;20318;-75
2021/03/31 19:33:49;;;;;;;24.90;11.93;;;;;;;8.68;56.15;95233.94;10482762;28;20028;-75
2021/03/31 19:38:50;;;;;;;18.52;12.52;;;;;;;8.78;58.03;95233.25;10471993;28;20021;-76
2021/03/31 19:43:50;;;;;;;18.70;11.45;;;;;;;8.96;56.98;95237.47;10481768;28;20062;-75
2021/03/31 19:48:51;;;;;;;19.50;12.80;;;;;;;8.97;56.39;95235.59;10471123;28;20025;-76
2021/03/31 19:53:52;;;;;;;22.47;12.70;;;;;;;8.83;60.03;95229.81;10481324;28;20032;-75
2021/03/31 19:58:53;;;;;;;24.27;13.90;;;;;;;8.61;58.75;95230.63;10481760;28;20035;-76
2021/03/31 20:03:53;;;;;;;27.50;13.93;;;;;;;8.70;57.43;95228.31;10483151;28;20032;-76
2021/03/31 20:08:54;;;;;;;28.60;14.97;;;;;;;8.59;58.67;95219.31;10483253;28;20072;-76
2021/03/31 20:13:55;;;;;;;32.75;15.40;;;;;;;8.60;58.83;95214.78;10482505;28;20279;-76
2021/03/31 20:18:56;;;;;;;25.13;14.88;;;;;;;8.62;58.22;95215.34;10484346;28;20097;-73
2021/03/31 20:23:56;;;;;;;26.23;14.23;;;;;;;8.84;66.12;95205.44;10483473;28;20131;-73
2021/03/31 20:28:57;;;;;;;27.10;13.40;;;;;;;8.97;61.62;95214.16;10481370;28;20402;-73
2021/03/31 20:39:00;;;;;;;31.45;18.17;;;;;;;8.83;60.22;95206.50;10490434;28;20024;-73
2021/03/31 20:44:04;;;;;;;29.20;17.57;;;;;;;8.67;58.84;95202.81;10490398;28;20024;-73
2021/03/31 20:49:04;;;;;;;31.55;16.17;;;;;;;8.68;59.91;95199.09;10491081;28;20206;-73
2021/03/31 20:54:05;;;;;;;33.97;16.63;;;;;;;8.75;58.59;95192.72;10490303;28;20046;-73
2021/03/31 20:59:05;;;;;;;31.80;16.98;;;;;;;8.86;62.19;95187.25;10489193;28;20028;-73
2021/03/31 21:04:06;;;;;;;39.47;16.85;;;;;;;9.01;61.50;95181.22;10449142;28;20172;-73
2021/03/31 21:09:06;;;;;;;36.30;17.00;;;;;;;9.12;59.67;95178.66;10448364;28;20141;-73
2021/03/31 21:14:06;;;;;;;30.43;15.97;;;;;;;9.04;58.88;95187.94;10448056;28;20278;-73
2021/03/31 21:19:07;;;;;;;30.00;15.30;;;;;;;9.16;60.89;95190.50;10448054;28;20275;-73
2021/03/31 21:24:09;;;;;;;34.15;17.27;;;;;;;9.14;58.69;95192.63;10448057;28;20071;-73
2021/03/31 21:29:09;;;;;;;32.90;16.00;;;;;;;9.26;57.97;95179.88;10445725;28;20129;-73
2021/03/31 21:34:09;;;;;;;34.23;16.40;;;;;;;9.09;59.21;95174.59;10447575;28;20025;-73
2021/03/31 21:39:11;;;;;;;28.80;15.70;;;;;;;8.98;58.74;95162.97;10462686;28;20032;-73
2021/03/31 21:44:12;;;;;;;25.52;16.60;;;;;;;8.95;56.96;95150.06;10487160;28;20111;-73
2021/03/31 21:49:12;;;;;;;28.70;16.27;;;;;;;8.82;56.68;95153.97;10488814;28;20031;-72
2021/03/31 21:54:12;;;;;;;27.87;15.27;;;;;;;8.83;57.07;95138.69;10488314;28;20025;-73
2021/03/31 21:59:13;;;;;;;23.20;14.13;;;;;;;8.73;57.61;95134.03;10485792;28;21169;-73
2021/03/31 22:04:13;;;;;;;26.88;15.38;;;;;;;8.71;56.78;95123.56;10488233;28;20329;-73
2021/03/31 22:09:14;;;;;;;22.13;13.70;;;;;;;8.70;57.04;95116.56;10483208;28;20518;-73
2021/03/31 22:14:14;;;;;;;21.35;12.57;;;;;;;8.96;56.47;95124.06;10445861;28;20501;-72
2021/03/31 22:19:15;;;;;;;21.13;12.23;;;;;;;9.12;54.30;95125.84;10445784;28;20036;-72
2021/03/31 22:24:15;;;;;;;27.17;14.13;;;;;;;9.04;61.03;95140.53;10446021;28;20303;-72
2021/03/31 22:29:16;;;;;;;24.83;14.65;;;;;;;9.09;57.01;95136.28;10445126;28;20065;-72
2021/03/31 22:34:17;;;;;;;23.10;13.80;;;;;;;8.92;59.51;95139.84;10477005;28;20152;-73
2021/03/31 22:39:17;;;;;;;24.92;13.23;;;;;;;8.77;58.88;95139.69;10474613;28;20036;-72
2021/03/31 22:44:18;;;;;;;24.10;13.40;;;;;;;8.80;59.55;95125.78;10458438;28;20024;-71
2021/03/31 22:49:19;;;;;;;24.40;14.15;;;;;;;8.60;59.57;95139.78;10443909;28;20291;-71
2021/03/31 22:54:22;;;;;;;28.45;13.77;;;;;;;8.75;61.01;95128.41;10444292;28;20381;-72
2021/03/31 22:59:23;;;;;;;31.60;15.80;;;;;;;8.75;60.65;95126.56;10468450;28;20020;-71
2021/03/31 23:04:37;;;;;;;31.93;16.27;;;;;;;8.87;61.81;95119.19;10468600;28;20475;-72
2021/03/31 23:09:38;;;;;;;28.05;15.70;;;;;;;8.80;63.29;95112.38;10443403;28;20045;-72
2021/03/31 23:14:38;;;;;;;28.40;17.33;;;;;;;8.75;63.60;95126.56;10443662;28;20036;-72
2021/03/31 23:19:38;;;;;;;33.17;17.40;;;;;;;8.78;63.32;95114.53;10443023;28;21078;-72
2021/03/31 23:24:39;;;;;;;28.23;15.27;;;;;;;8.84;62.76;95103.56;10443373;28;20036;-72
2021/03/31 23:29:39;;;;;;;34.88;16.02;;;;;;;8.85;63.31;95102.53;10442513;28;20029;-72
2021/03/31 23:34:40;;;;;;;32.70;17.57;;;;;;;8.85;64.75;95091.81;10442464;28;20129;-72
2021/03/31 23:39:41;;;;;;;32.70;17.63;;;;;;;8.87;64.40;95102.28;10456142;28;20102;-72
2021/03/31 23:44:41;;;;;;;32.60;16.17;;;;;;;8.83;63.84;95099.31;10482097;28;20370;-77
2021/03/31 23:49:42;;;;;;;31.60;17.13;;;;;;;8.81;64.57;95097.94;10482553;28;20032;-78
2021/03/31 23:54:42;;;;;;;29.92;16.13;;;;;;;8.68;63.15;95099.94;10482221;28;20064;-78
2021/03/31 23:59:43;;;;;;;33.78;17.42;;;;;;;8.60;64.85;95089.69;10480587;28;20024;-79
